createdAt,value
2023-07-19T00:00:36.577Z,1.37
2023-07-19T00:04:03.653Z,1.50
2023-07-19T00:07:03.617Z,1.43
2023-07-19T00:10:27.629Z,1.67
2023-07-19T00:13:27.622Z,1.67
2023-07-19T00:16:39.768Z,1.77
2023-07-19T00:19:52.660Z,1.63
2023-07-19T00:23:05.667Z,1.60
2023-07-19T00:26:05.698Z,1.60
2023-07-19T00:29:18.699Z,1.83
2023-07-19T00:32:19.709Z,1.60
2023-07-19T00:35:46.799Z,2.00
2023-07-19T00:38:46.792Z,2.07
2023-07-19T00:41:58.807Z,1.50
2023-07-19T00:44:58.787Z,1.90
2023-07-19T00:48:22.784Z,1.63
2023-07-19T00:51:36.784Z,2.03
2023-07-19T00:54:48.773Z,1.67
2023-07-19T00:58:00.768Z,1.67
2023-07-19T01:01:25.008Z,2.47
2023-07-19T01:04:37.820Z,1.73
2023-07-19T01:08:04.777Z,2.07
2023-07-19T01:11:16.853Z,1.90
2023-07-19T01:14:29.848Z,2.17
2023-07-19T01:17:29.866Z,2.30
2023-07-19T01:20:53.919Z,1.70
2023-07-19T01:24:07.884Z,1.60
2023-07-19T01:27:31.865Z,2.33
2023-07-19T01:30:32.906Z,1.90
2023-07-19T01:33:57.888Z,2.07
2023-07-19T01:37:09.947Z,2.20
2023-07-19T01:40:36.922Z,1.70
2023-07-19T01:43:36.906Z,2.30
2023-07-19T01:46:49.980Z,2.37
2023-07-19T01:50:01.934Z,2.17
2023-07-19T01:53:14.088Z,2.00
2023-07-19T01:56:39.954Z,2.00
2023-07-19T02:00:03.976Z,1.75
2023-07-19T02:03:04.040Z,2.30
2023-07-19T02:06:16.057Z,1.77
2023-07-19T02:09:28.035Z,2.00
2023-07-19T02:12:55.086Z,2.03
2023-07-19T02:16:07.135Z,2.33
2023-07-19T02:19:31.052Z,1.80
2023-07-19T02:22:34.089Z,1.63
2023-07-19T02:25:47.041Z,2.35
2023-07-19T02:29:01.029Z,1.70
2023-07-19T02:32:13.033Z,1.63
2023-07-19T02:35:13.066Z,1.90
2023-07-19T02:38:25.093Z,2.40
2023-07-19T02:41:37.383Z,2.07
2023-07-19T02:45:04.101Z,1.70
2023-07-19T02:48:05.210Z,2.23
2023-07-19T02:51:18.307Z,3.03
2023-07-19T02:54:30.160Z,1.90
2023-07-19T02:57:42.208Z,1.87
2023-07-19T03:00:56.133Z,2.03
2023-07-19T03:04:21.359Z,2.40
2023-07-19T03:07:22.141Z,2.03
2023-07-19T03:10:34.273Z,2.20
2023-07-19T03:13:35.261Z,2.27
2023-07-19T03:17:00.257Z,1.93
2023-07-19T03:20:00.231Z,2.07
2023-07-19T03:23:24.253Z,2.20
2023-07-19T03:26:36.223Z,2.55
2023-07-19T03:29:48.308Z,2.27
2023-07-19T03:33:02.274Z,2.23
2023-07-19T03:36:14.280Z,2.60
2023-07-19T03:39:14.293Z,2.60
2023-07-19T03:42:26.321Z,2.10
2023-07-19T03:45:39.262Z,2.57
2023-07-19T03:49:05.290Z,2.40
2023-07-19T03:52:18.311Z,2.37
2023-07-19T03:55:31.340Z,2.50
2023-07-19T03:58:55.347Z,2.47
2023-07-19T04:02:07.333Z,2.40
2023-07-19T04:05:33.312Z,2.57
2023-07-19T04:08:45.397Z,3.13
2023-07-19T04:11:57.409Z,2.53
2023-07-19T04:15:10.371Z,2.93
2023-07-19T04:18:23.419Z,2.80
2023-07-19T04:21:48.485Z,2.70
2023-07-19T04:25:00.473Z,3.20
2023-07-19T04:28:12.442Z,3.57
2023-07-19T04:31:24.448Z,3.03
2023-07-19T04:34:24.478Z,2.97
2023-07-19T04:37:51.457Z,3.13
2023-07-19T04:41:15.475Z,3.17
2023-07-19T04:44:29.532Z,2.55
2023-07-19T04:47:30.492Z,3.57
2023-07-19T04:50:42.550Z,2.63
2023-07-19T04:54:08.521Z,3.33
2023-07-19T04:57:20.584Z,3.10
2023-07-19T05:00:22.595Z,2.87
2023-07-19T05:03:35.505Z,2.80
2023-07-19T05:06:47.523Z,2.90
2023-07-19T05:10:14.666Z,2.80
2023-07-19T05:13:14.591Z,3.47
2023-07-19T05:16:38.594Z,2.87
2023-07-19T05:19:50.611Z,2.60
2023-07-19T05:23:03.662Z,2.73
2023-07-19T05:26:17.615Z,2.77
2023-07-19T05:29:30.602Z,2.37
2023-07-19T05:32:33.637Z,2.47
2023-07-19T05:35:46.657Z,2.67
2023-07-19T05:38:58.657Z,2.73
2023-07-19T05:42:24.632Z,2.47
2023-07-19T05:45:24.638Z,2.47
2023-07-19T05:48:37.727Z,2.40
2023-07-19T05:51:37.706Z,2.23
2023-07-19T05:54:50.746Z,1.90
2023-07-19T05:58:04.702Z,2.30
2023-07-19T06:01:17.896Z,2.20
2023-07-19T06:04:30.838Z,1.77
2023-07-19T06:07:30.852Z,2.00
2023-07-19T06:10:43.759Z,1.60
2023-07-19T06:13:57.764Z,1.47
2023-07-19T06:17:10.799Z,1.60
2023-07-19T06:20:10.757Z,1.77
2023-07-19T06:23:22.871Z,1.70
2023-07-19T06:26:22.820Z,1.70
2023-07-19T06:29:48.784Z,1.50
2023-07-19T06:33:01.648Z,1.63
2023-07-19T06:36:13.878Z,1.40
2023-07-19T06:39:13.828Z,1.43
2023-07-19T06:42:25.881Z,1.50
2023-07-19T06:45:39.980Z,1.40
2023-07-19T06:48:51.848Z,1.23
2023-07-19T06:51:52.897Z,1.33
2023-07-19T06:55:04.957Z,1.43
2023-07-19T06:58:04.905Z,1.37
2023-07-19T07:01:30.948Z,1.50
2023-07-19T07:04:30.937Z,1.70
2023-07-19T07:07:43.893Z,1.80
2023-07-19T07:10:43.989Z,1.70
2023-07-19T07:13:56.027Z,1.60
2023-07-19T07:17:10.054Z,1.80
2023-07-19T07:20:22.933Z,1.70
2023-07-19T07:23:22.969Z,1.80
2023-07-19T07:26:36.001Z,1.33
2023-07-19T07:29:35.966Z,1.90
2023-07-19T07:33:02.116Z,1.50
2023-07-19T07:36:01.982Z,1.47
2023-07-19T07:39:15.009Z,1.60
2023-07-19T07:42:27.044Z,1.60
2023-07-19T07:45:41.122Z,1.40
2023-07-19T07:48:56.159Z,1.40
2023-07-19T07:52:08.028Z,1.37
2023-07-19T07:55:08.094Z,1.15
2023-07-19T07:58:21.125Z,1.40
2023-07-19T08:01:21.342Z,1.33
2023-07-19T08:04:48.077Z,0.97
2023-07-19T08:07:48.078Z,1.00
2023-07-19T08:11:01.176Z,1.40
2023-07-19T08:14:13.116Z,1.13
2023-07-19T08:17:25.238Z,1.27
2023-07-19T08:20:39.132Z,1.20
2023-07-19T08:23:51.121Z,1.17
2023-07-19T08:26:51.144Z,1.50
2023-07-19T08:30:17.201Z,1.40
2023-07-19T08:33:18.188Z,1.23
2023-07-19T08:36:45.235Z,1.03
2023-07-19T08:39:45.191Z,1.37
2023-07-19T08:42:59.271Z,1.20
2023-07-19T08:45:59.295Z,1.47
2023-07-19T08:49:12.179Z,1.20
2023-07-19T08:52:26.247Z,1.47
2023-07-19T08:55:39.325Z,1.33
2023-07-19T08:58:51.258Z,1.20
2023-07-19T09:02:16.327Z,1.77
2023-07-19T09:05:34.320Z,1.13
2023-07-19T09:09:01.388Z,1.30
2023-07-19T09:12:02.247Z,0.85
2023-07-19T09:15:15.358Z,1.00
2023-07-19T09:18:27.395Z,1.00
2023-07-19T09:21:55.351Z,1.23
2023-07-19T09:25:17.386Z,1.20
2023-07-19T09:28:42.938Z,0.90
2023-07-19T09:31:43.404Z,1.10
2023-07-19T09:34:55.483Z,1.53
2023-07-19T09:37:56.423Z,1.17
2023-07-19T09:41:22.591Z,1.10
2023-07-19T09:44:34.465Z,1.43
2023-07-19T09:48:00.493Z,1.50
2023-07-19T09:51:12.402Z,1.13
2023-07-19T09:54:37.464Z,1.20
2023-07-19T09:57:50.498Z,1.10
2023-07-19T10:01:14.613Z,1.85
2023-07-19T10:04:48.494Z,1.00
2023-07-19T10:08:00.471Z,1.17
2023-07-19T10:11:24.643Z,1.30
2023-07-19T10:14:38.529Z,2.70
2023-07-19T10:18:04.578Z,1.20
2023-07-19T10:21:24.524Z,1.43
2023-07-19T10:24:48.495Z,1.27
2023-07-19T10:28:00.529Z,1.33
2023-07-19T10:31:29.604Z,1.13
2023-07-19T10:34:43.598Z,1.30
2023-07-19T10:37:53.604Z,1.27
2023-07-19T10:40:53.558Z,1.45
2023-07-19T10:44:18.554Z,1.50
2023-07-19T10:47:32.613Z,1.20
2023-07-19T10:50:45.814Z,1.30
2023-07-19T10:53:58.278Z,0.87
2023-07-19T10:57:13.621Z,1.40
2023-07-19T11:00:17.561Z,1.30
2023-07-19T11:03:41.738Z,1.03
2023-07-19T11:06:41.722Z,1.35
2023-07-19T11:10:06.675Z,1.07
2023-07-19T11:13:07.705Z,1.15
2023-07-19T11:16:19.652Z,1.10
2023-07-19T11:19:32.726Z,0.95
2023-07-19T11:22:45.742Z,1.00
2023-07-19T11:25:57.694Z,1.00
2023-07-19T11:29:22.680Z,0.85
2023-07-19T11:32:37.773Z,0.90
2023-07-19T11:36:04.718Z,1.00
2023-07-19T11:39:05.747Z,0.93
2023-07-19T11:42:19.742Z,0.90
2023-07-19T11:45:34.815Z,1.10
2023-07-19T11:48:46.747Z,1.00
2023-07-19T11:52:00.796Z,0.95
2023-07-19T11:55:18.835Z,0.90
2023-07-19T11:58:25.577Z,0.70
2023-07-19T12:01:31.857Z,0.70
2023-07-19T12:04:43.846Z,0.70
2023-07-19T12:07:57.870Z,1.45
2023-07-19T12:11:10.832Z,0.80
2023-07-19T12:14:22.880Z,1.00
2023-07-19T12:17:35.973Z,0.80
2023-07-19T12:20:35.880Z,0.80
2023-07-19T12:24:02.909Z,1.00
2023-07-19T12:27:02.933Z,0.60
2023-07-19T12:30:27.984Z,0.90
2023-07-19T12:33:28.969Z,0.53
2023-07-19T12:36:41.910Z,0.77
2023-07-19T12:39:55.964Z,0.87
2023-07-19T12:43:08.922Z,1.20
2023-07-19T12:46:10.041Z,1.03
2023-07-19T12:49:25.996Z,0.90
2023-07-19T12:52:51.272Z,1.10
2023-07-19T12:56:18.048Z,1.00
2023-07-19T12:59:40.015Z,1.27
2023-07-19T13:03:09.763Z,1.33
2023-07-19T13:06:17.434Z,1.40
2023-07-19T13:09:45.477Z,1.70
2023-07-19T13:13:15.679Z,1.60
2023-07-19T13:16:36.482Z,1.30
2023-07-19T13:19:47.709Z,1.13
2023-07-19T13:23:12.735Z,0.83
2023-07-19T13:26:21.614Z,1.07
2023-07-19T13:29:51.118Z,1.00
2023-07-19T13:32:51.154Z,0.90
2023-07-19T13:36:03.839Z,0.87
2023-07-19T13:39:03.108Z,0.73
2023-07-19T13:42:17.144Z,1.33
2023-07-19T13:45:31.161Z,1.30
2023-07-19T13:48:44.214Z,1.33
2023-07-19T13:51:44.158Z,1.27
2023-07-19T13:54:57.196Z,1.60
2023-07-19T13:57:57.167Z,1.20
2023-07-19T14:01:23.225Z,1.20
2023-07-19T14:04:35.191Z,1.25
2023-07-19T14:07:35.250Z,1.33
2023-07-19T14:10:59.186Z,1.50
2023-07-19T14:13:59.237Z,1.10
2023-07-19T14:17:25.280Z,1.33
2023-07-19T14:20:26.280Z,1.30
2023-07-19T14:23:39.282Z,1.60
2023-07-19T14:26:39.284Z,1.23
2023-07-19T14:29:52.298Z,1.70
2023-07-19T14:33:06.273Z,1.40
2023-07-19T14:36:21.688Z,2.00
2023-07-19T14:39:32.264Z,1.60
2023-07-19T14:42:44.342Z,1.90
2023-07-19T14:45:44.429Z,1.40
2023-07-19T14:49:11.292Z,1.47
2023-07-19T14:52:11.283Z,1.07
2023-07-19T14:55:23.412Z,1.73
2023-07-19T14:58:23.308Z,1.27
2023-07-19T15:01:51.907Z,1.47
2023-07-19T15:05:05.964Z,1.07
2023-07-19T15:08:18.360Z,1.43
2023-07-19T15:11:18.455Z,1.20
2023-07-19T15:14:32.594Z,1.90
2023-07-19T15:17:31.672Z,1.27
2023-07-19T15:20:57.453Z,1.47
2023-07-19T15:23:57.406Z,1.00
2023-07-19T15:27:10.145Z,1.10
2023-07-19T15:30:09.469Z,1.30
2023-07-19T15:33:22.453Z,1.57
2023-07-19T15:36:37.538Z,1.30
2023-07-19T15:39:49.539Z,0.90
2023-07-19T15:42:50.486Z,1.00
2023-07-19T15:46:03.531Z,1.40
2023-07-19T15:49:04.526Z,1.75
2023-07-19T15:52:30.556Z,1.17
2023-07-19T15:55:30.563Z,0.80
2023-07-19T15:58:43.572Z,1.20
2023-07-19T16:01:55.612Z,0.87
2023-07-19T16:05:08.520Z,1.03
2023-07-19T16:08:21.586Z,0.80
2023-07-19T16:11:33.551Z,1.00
2023-07-19T16:14:33.604Z,1.10
2023-07-19T16:17:46.660Z,0.90
2023-07-19T16:20:46.654Z,1.00
2023-07-19T16:24:12.597Z,0.80
2023-07-19T16:27:13.575Z,1.00
2023-07-19T16:30:27.607Z,0.80
2023-07-19T16:33:27.665Z,0.87
2023-07-19T16:36:40.629Z,1.23
2023-07-19T16:39:54.661Z,1.33
2023-07-19T16:43:08.628Z,0.97
2023-07-19T16:46:08.651Z,1.07
2023-07-19T16:49:23.262Z,0.90
2023-07-19T16:52:22.722Z,1.30
2023-07-19T16:55:49.700Z,1.15
2023-07-19T16:58:49.752Z,0.93
2023-07-19T17:02:01.752Z,0.90
2023-07-19T17:05:01.775Z,0.73
2023-07-19T17:08:15.826Z,1.00
2023-07-19T17:11:29.721Z,1.20
2023-07-19T17:14:42.739Z,0.90
2023-07-19T17:17:42.924Z,0.70
2023-07-19T17:20:55.820Z,0.50
2023-07-19T17:23:55.766Z,0.60
2023-07-19T17:27:22.814Z,0.65
2023-07-19T17:30:36.872Z,0.80
2023-07-19T17:33:48.800Z,0.77
2023-07-19T17:36:48.817Z,0.60
2023-07-19T17:40:12.830Z,0.70
2023-07-19T17:43:26.953Z,0.63
2023-07-19T17:46:38.979Z,0.53
2023-07-19T17:49:42.909Z,0.77
2023-07-19T17:52:55.892Z,0.77
2023-07-19T17:55:55.892Z,0.70
2023-07-19T17:59:21.918Z,0.77
2023-07-19T18:02:34.022Z,0.57
2023-07-19T18:05:45.888Z,0.80
2023-07-19T18:08:45.959Z,0.60
2023-07-19T18:12:10.989Z,0.70
2023-07-19T18:15:23.983Z,0.60
2023-07-19T18:18:35.986Z,0.73
2023-07-19T18:21:35.990Z,0.60
2023-07-19T18:24:48.961Z,0.50
2023-07-19T18:27:49.025Z,0.53
2023-07-19T18:31:16.080Z,0.77
2023-07-19T18:34:16.034Z,0.77
2023-07-19T18:37:29.039Z,0.95
2023-07-19T18:40:28.996Z,0.70
2023-07-19T18:43:42.368Z,1.17
2023-07-19T18:46:57.152Z,1.80
2023-07-19T18:50:10.065Z,0.50
2023-07-19T18:53:10.036Z,0.80
2023-07-19T18:56:23.066Z,0.70
2023-07-19T18:59:23.158Z,0.70
2023-07-19T19:02:49.125Z,0.90
2023-07-19T19:05:49.290Z,0.60
2023-07-19T19:09:01.163Z,0.73
2023-07-19T19:12:13.170Z,1.00
2023-07-19T19:15:26.241Z,0.50
2023-07-19T19:18:40.248Z,0.70
2023-07-19T19:22:04.287Z,0.80
2023-07-19T19:25:04.125Z,0.90
2023-07-19T19:28:16.170Z,1.03
2023-07-19T19:31:16.366Z,0.70
2023-07-19T19:34:42.303Z,0.77
2023-07-19T19:37:42.203Z,0.80
2023-07-19T19:41:07.269Z,0.50
2023-07-19T19:44:19.257Z,0.57
2023-07-19T19:47:31.345Z,0.50
2023-07-19T19:50:45.471Z,0.60
2023-07-19T19:53:58.243Z,0.70
2023-07-19T19:56:59.494Z,0.47
2023-07-19T20:00:13.445Z,0.80
2023-07-19T20:06:39.358Z,0.60
2023-07-19T20:10:01.191Z,0.80
2023-07-19T20:12:55.370Z,0.80
2023-07-19T20:16:07.392Z,0.83
2023-07-19T20:22:45.387Z,1.15
2023-07-19T20:26:11.019Z,0.60
2023-07-19T20:29:26.307Z,0.77
2023-07-19T20:32:00.138Z,0.87
2023-07-19T20:35:09.395Z,0.87
2023-07-19T20:41:35.435Z,0.90
2023-07-19T20:47:47.478Z,0.50
2023-07-19T20:50:47.382Z,0.70
2023-07-19T20:54:13.501Z,0.80
2023-07-19T20:57:13.398Z,0.50
2023-07-19T21:00:26.446Z,0.77
2023-07-19T21:03:26.539Z,0.55
2023-07-19T21:06:38.483Z,0.82
2023-07-19T21:09:52.480Z,0.70
2023-07-19T21:13:17.558Z,1.00
2023-07-19T21:16:18.514Z,0.90
2023-07-19T21:19:30.639Z,0.83
2023-07-19T21:22:31.593Z,0.97
2023-07-19T21:25:57.538Z,0.87
2023-07-19T21:28:57.623Z,0.80
2023-07-19T21:32:10.575Z,0.80
2023-07-19T21:35:10.557Z,0.90
2023-07-19T21:38:22.613Z,0.90
2023-07-19T21:41:36.608Z,0.80
2023-07-19T21:45:00.624Z,0.97
2023-07-19T21:48:00.619Z,0.93
2023-07-19T21:51:25.597Z,0.80
2023-07-19T21:54:25.614Z,0.80
2023-07-19T21:57:51.606Z,1.13
2023-07-19T22:01:05.659Z,1.10
2023-07-19T22:04:18.731Z,0.73
2023-07-19T22:07:19.616Z,0.80
2023-07-19T22:10:32.756Z,0.83
2023-07-19T22:13:46.710Z,0.77
2023-07-19T22:16:58.740Z,0.60
2023-07-19T22:19:58.751Z,0.90
2023-07-19T22:23:10.754Z,0.70
2023-07-19T22:26:10.751Z,0.90
2023-07-19T22:29:36.745Z,0.77
2023-07-19T22:32:37.807Z,0.50
2023-07-19T22:35:50.775Z,0.60
2023-07-19T22:38:50.720Z,0.97
2023-07-19T22:42:02.774Z,0.73
2023-07-19T22:45:16.757Z,0.90
2023-07-19T22:48:29.746Z,0.63
2023-07-19T22:51:30.805Z,0.90
2023-07-19T22:54:43.775Z,0.70
2023-07-19T22:57:56.863Z,0.83
2023-07-19T23:01:22.870Z,0.80
2023-07-19T23:04:22.923Z,1.20
2023-07-19T23:07:34.833Z,1.13
2023-07-19T23:10:46.867Z,3.00
2023-07-19T23:13:59.903Z,0.97
2023-07-19T23:17:14.077Z,1.20
2023-07-19T23:20:38.908Z,1.10
2023-07-19T23:23:38.925Z,1.03
2023-07-19T23:26:52.943Z,1.00
2023-07-19T23:30:04.956Z,1.20
2023-07-19T23:33:30.897Z,1.10
2023-07-19T23:36:30.977Z,1.00
2023-07-19T23:39:42.909Z,1.40
2023-07-19T23:42:43.005Z,1.00
2023-07-19T23:45:55.927Z,0.80
2023-07-19T23:49:10.021Z,0.90
2023-07-19T23:52:23.038Z,0.80
2023-07-19T23:55:23.982Z,0.97
2023-07-19T23:58:36.025Z,0.90
